Airfield :
LOGIN :

Register | Disclaimer

   EN    FR    IT 

 










Legend :    VFR   Marginal VFR   IFR   Intensive IFR   Very Intensive IFR
Visi :
Ceiling :
>= 8 km
>= 3000ft
5 to 8 km
1000 to 3000 ft
1500m to 5 km
500 to 1000 ft
800 to 1500m
200 to 500 ft
< 800m
< 200 ft
Symbols :   Thunderstorms  Fog  Heavy snow  Heavy precipitations  Wind > 20 kt
SIGMETs :     Misc.  Thunderstorms  Icing  Turbulence  Mountain Waves  Volcanic Ashes







- Airport Elevation : -11 ft
- IATA code : AMS


EHAM - Amsterdam Schiphol

CURRENT METAR :
  • 181725Z 27009KT 9999 FEW022 04/01 Q1000 NOSIG

EXPIRED METARs :
  • 181655Z 27011KT 9999 FEW020 SCT030 05/01 Q1000 NOSIG
  • 181625Z 27013KT 9999 SCT020 05/01 Q1000 NOSIG
  • 181555Z 27014KT 9999 FEW020 SCT035 05/02 Q1000 NOSIG
  • 181525Z 28015KT 250V310 9999 FEW020 SCT035 05/02 Q1000 NOSIG

TAF TAF EHAM
Valid from the 18 at 18:00 until the 20 at 00:00 UTC


181713Z 1818/1924 27009KT 9999 SCT030
TEMPO 1819/1908 28015G25KT 6000 SHRAGS SCT020CB BKN030
PROB40
TEMPO 1821/1908 4000 TSRAGS SCT015CB BKN020
BECMG 1901/1904 28014KT
PROB30
TEMPO 1908/1917 27015G25KT 7000 -SHRAGS FEW020CB
BECMG 1911/1914 25014KT
TEMPO 1917/1923 27018G28KT 6000 SHRAGS SCT015CB BKN020
PROB40
TEMPO 1917/1923 4000 TSRAGS
No reported NOTAMs for that airfield.



MET'MAP, your aeronautical weather chart ! - Copyright ORBIFLY December 2007 - Disclaimer

ORBIFLY MET'MAP TEAM :

Programming & Development : Alexandra Zaïnal
Concept & Development : Baudouin d'Aumeries
Co-Development & Prog : Marc-Olivier Méhu
Technical & hardware support : Manuel Goepfert

Contact : metmap@orbifly.com




SOURCES & CREDITS :

   NOAA